createdAt,value
2022-12-31T00:01:49.305Z,9.90
2022-12-31T00:04:17.243Z,10.70
2022-12-31T00:06:46.070Z,8.93
2022-12-31T00:09:13.981Z,7.97
2022-12-31T00:11:42.099Z,9.20
2022-12-31T00:14:11.410Z,9.10
2022-12-31T00:16:41.787Z,8.53
2022-12-31T00:19:11.897Z,9.03
2022-12-31T00:21:39.872Z,9.00
2022-12-31T00:24:08.737Z,8.70
2022-12-31T00:26:37.200Z,9.07
2022-12-31T00:29:06.079Z,8.73
2022-12-31T00:31:41.931Z,8.00
2022-12-31T00:34:10.873Z,9.40
2022-12-31T00:36:40.225Z,7.70
2022-12-31T00:39:09.305Z,9.03
2022-12-31T00:41:37.220Z,9.00
2022-12-31T00:44:05.428Z,7.93
2022-12-31T00:46:33.581Z,7.97
2022-12-31T00:49:02.942Z,7.43
2022-12-31T00:51:30.921Z,8.10
2022-12-31T00:53:59.489Z,6.97
2022-12-31T00:56:30.473Z,7.60
2022-12-31T00:58:59.131Z,7.93
2022-12-31T01:01:29.525Z,8.37
2022-12-31T01:04:00.404Z,7.70
2022-12-31T01:06:29.679Z,8.47
2022-12-31T01:08:57.680Z,6.93
2022-12-31T01:11:29.365Z,7.20
2022-12-31T01:13:59.332Z,7.30
2022-12-31T01:16:29.028Z,7.90
2022-12-31T01:18:58.821Z,6.73
2022-12-31T01:21:26.746Z,7.00
2022-12-31T01:23:56.022Z,7.80
2022-12-31T01:26:23.945Z,7.00
2022-12-31T01:28:51.852Z,7.30
2022-12-31T01:31:21.230Z,6.87
2022-12-31T01:33:49.483Z,6.87
2022-12-31T01:36:23.581Z,6.60
2022-12-31T01:38:55.089Z,5.10
2022-12-31T01:41:24.908Z,5.20
2022-12-31T01:43:55.200Z,5.30
2022-12-31T01:46:28.529Z,6.10
2022-12-31T01:48:58.049Z,5.93
2022-12-31T01:51:27.558Z,6.20
2022-12-31T01:53:57.149Z,5.60
2022-12-31T01:56:25.217Z,5.60
2022-12-31T01:58:56.525Z,5.90
2022-12-31T02:01:27.256Z,4.83
2022-12-31T02:03:57.040Z,5.30
2022-12-31T02:06:28.377Z,5.10
2022-12-31T02:08:59.189Z,4.70
2022-12-31T02:11:29.424Z,5.20
2022-12-31T02:14:03.485Z,4.93
2022-12-31T02:16:35.882Z,4.63
2022-12-31T02:19:12.437Z,5.70
2022-12-31T02:21:50.752Z,6.13
2022-12-31T02:24:40.102Z,4.43
2022-12-31T02:27:10.622Z,6.20
2022-12-31T02:30:10.906Z,3.90
2022-12-31T02:33:03.885Z,3.20
2022-12-31T02:35:34.377Z,2.53
2022-12-31T02:38:05.831Z,1.87
2022-12-31T02:40:35.854Z,2.93
2022-12-31T02:43:04.210Z,3.70
2022-12-31T02:45:36.321Z,2.80
2022-12-31T02:48:28.533Z,3.40
2022-12-31T02:51:01.802Z,3.97
2022-12-31T02:53:52.048Z,3.43
2022-12-31T02:56:25.123Z,3.53
2022-12-31T02:59:18.779Z,3.80
2022-12-31T03:02:09.252Z,4.10
2022-12-31T03:04:37.371Z,3.50
2022-12-31T03:07:07.289Z,4.07
2022-12-31T03:09:36.209Z,25.90
2022-12-31T03:12:23.238Z,3.80
2022-12-31T03:14:51.527Z,3.00
2022-12-31T03:17:20.811Z,3.90
2022-12-31T03:20:06.103Z,4.60
2022-12-31T03:22:36.401Z,2.00
2022-12-31T03:25:24.660Z,5.30
2022-12-31T03:27:52.626Z,4.33
2022-12-31T03:30:21.956Z,8.53
2022-12-31T03:32:52.276Z,3.10
2022-12-31T03:35:21.407Z,3.80
2022-12-31T03:37:50.240Z,3.53
2022-12-31T03:40:19.518Z,3.17
2022-12-31T03:42:47.447Z,1.47
2022-12-31T03:45:15.866Z,2.23
2022-12-31T03:47:44.183Z,3.83
2022-12-31T03:50:14.883Z,3.00
2022-12-31T03:52:43.031Z,4.03
2022-12-31T03:55:12.651Z,3.10
2022-12-31T03:57:40.863Z,3.30
2022-12-31T04:00:12.540Z,5.60
2022-12-31T04:02:40.487Z,2.80
2022-12-31T04:05:09.529Z,3.23
2022-12-31T04:07:38.907Z,3.00
2022-12-31T04:10:08.102Z,2.57
2022-12-31T04:12:36.011Z,4.93
2022-12-31T04:15:03.965Z,3.80
2022-12-31T04:17:31.915Z,3.17
2022-12-31T04:19:59.841Z,2.90
2022-12-31T04:22:27.799Z,2.83
2022-12-31T04:24:57.061Z,2.30
2022-12-31T04:27:25.050Z,2.43
2022-12-31T04:29:52.924Z,2.83
2022-12-31T04:32:20.842Z,1.80
2022-12-31T04:34:48.737Z,1.90
2022-12-31T04:37:16.642Z,2.17
2022-12-31T04:39:44.531Z,2.27
2022-12-31T04:42:13.788Z,3.40
2022-12-31T04:44:41.736Z,1.90
2022-12-31T04:47:09.624Z,1.60
2022-12-31T04:49:37.519Z,1.87
2022-12-31T04:52:05.477Z,1.23
2022-12-31T04:54:33.362Z,1.00
2022-12-31T04:57:01.265Z,0.80
2022-12-31T04:59:30.541Z,1.67
2022-12-31T05:01:58.600Z,0.70
2022-12-31T05:04:26.789Z,0.63
2022-12-31T05:06:54.689Z,0.90
2022-12-31T05:09:24.177Z,0.80
2022-12-31T05:11:52.095Z,0.77
2022-12-31T05:14:20.381Z,1.57
2022-12-31T05:16:49.655Z,0.50
2022-12-31T05:19:18.058Z,1.07
2022-12-31T05:22:06.108Z,0.83
2022-12-31T05:24:34.109Z,1.27
2022-12-31T05:27:02.031Z,1.00
2022-12-31T05:29:29.960Z,1.30
2022-12-31T05:31:59.226Z,0.90
2022-12-31T05:34:27.125Z,1.10
2022-12-31T05:36:55.021Z,1.10
2022-12-31T05:39:22.915Z,1.20
2022-12-31T05:41:50.796Z,1.00
2022-12-31T05:44:18.677Z,16.93
2022-12-31T05:46:47.161Z,2.27
2022-12-31T05:49:16.459Z,2.80
2022-12-31T05:51:44.453Z,3.03
2022-12-31T05:54:12.344Z,1.67
2022-12-31T05:56:40.436Z,7.13
2022-12-31T05:59:08.322Z,2.80
2022-12-31T06:01:36.284Z,2.13
2022-12-31T06:04:04.337Z,1.27
2022-12-31T06:06:34.077Z,0.87
2022-12-31T06:09:01.991Z,1.10
2022-12-31T06:11:29.940Z,1.13
2022-12-31T06:13:58.335Z,1.20
2022-12-31T06:16:26.839Z,0.87
2022-12-31T06:18:54.793Z,1.10
2022-12-31T06:21:23.370Z,1.40
2022-12-31T06:23:53.143Z,1.93
2022-12-31T06:26:21.373Z,1.67
2022-12-31T06:28:49.286Z,1.47
2022-12-31T06:31:17.346Z,1.73
2022-12-31T06:33:46.923Z,1.43
2022-12-31T06:36:16.596Z,1.93
2022-12-31T06:38:45.076Z,1.50
2022-12-31T06:41:15.828Z,1.77
2022-12-31T06:43:44.458Z,1.30
2022-12-31T06:46:14.520Z,1.93
2022-12-31T06:48:44.708Z,1.10
2022-12-31T06:51:17.180Z,1.13
2022-12-31T06:53:46.009Z,1.30
2022-12-31T06:56:19.010Z,1.50
2022-12-31T06:58:47.468Z,2.10
2022-12-31T07:01:30.586Z,1.30
2022-12-31T07:04:02.280Z,1.20
2022-12-31T07:06:33.652Z,1.87
2022-12-31T07:09:05.992Z,1.33
2022-12-31T07:11:41.122Z,1.30
2022-12-31T07:14:16.526Z,1.63
2022-12-31T07:16:56.935Z,5.10
2022-12-31T07:19:33.756Z,5.10
2022-12-31T07:22:02.116Z,3.27
2022-12-31T07:24:30.650Z,1.30
2022-12-31T07:27:11.298Z,1.17
2022-12-31T07:29:51.336Z,2.33
2022-12-31T07:32:27.746Z,12.10
2022-12-31T07:35:03.799Z,7.20
2022-12-31T07:37:35.124Z,29.03
2022-12-31T07:40:07.745Z,5.10
2022-12-31T07:42:41.924Z,37.90
2022-12-31T07:45:15.827Z,4.20
2022-12-31T07:47:44.276Z,4.07
2022-12-31T07:50:16.149Z,3.10
2022-12-31T07:52:44.694Z,2.30
2022-12-31T07:55:12.722Z,3.00
2022-12-31T07:57:45.433Z,2.10
2022-12-31T08:00:15.297Z,1.97
2022-12-31T08:03:00.906Z,3.10
2022-12-31T08:05:33.390Z,2.40
2022-12-31T08:08:08.371Z,1.80
2022-12-31T08:10:39.492Z,2.10
2022-12-31T08:13:12.302Z,2.40
2022-12-31T08:15:41.156Z,13.20
2022-12-31T08:18:09.841Z,14.30
2022-12-31T08:20:45.721Z,11.80
2022-12-31T08:23:21.972Z,12.60
2022-12-31T08:26:01.868Z,10.90
2022-12-31T08:28:48.185Z,10.70
2022-12-31T08:31:19.411Z,7.80
2022-12-31T08:33:52.409Z,9.57
2022-12-31T08:36:25.286Z,10.40
2022-12-31T08:38:58.319Z,8.53
2022-12-31T08:41:31.734Z,6.67
2022-12-31T08:44:09.569Z,20.80
2022-12-31T08:46:41.403Z,11.20
2022-12-31T08:49:10.471Z,11.10
2022-12-31T08:51:39.013Z,16.93
2022-12-31T08:54:07.770Z,13.60
2022-12-31T08:56:38.759Z,11.63
2022-12-31T08:59:19.284Z,14.07
2022-12-31T09:02:00.410Z,13.67
2022-12-31T09:04:35.301Z,10.30
2022-12-31T09:07:04.627Z,5.90
2022-12-31T09:09:38.512Z,4.97
2022-12-31T09:12:12.270Z,5.07
2022-12-31T09:14:47.042Z,4.97
2022-12-31T09:17:32.197Z,5.60
2022-12-31T09:20:00.715Z,10.87
2022-12-31T09:22:29.268Z,16.07
2022-12-31T09:24:57.618Z,31.00
2022-12-31T09:27:29.815Z,353.83
2022-12-31T09:30:04.918Z,498.40
2022-12-31T09:32:40.480Z,85.87
2022-12-31T09:35:14.366Z,185.83
2022-12-31T09:37:46.979Z,14.00
2022-12-31T09:40:49.538Z,27.33
2022-12-31T09:44:12.295Z,15.33
2022-12-31T09:47:28.901Z,28.00
2022-12-31T09:50:34.118Z,17.50
2022-12-31T09:53:26.311Z,11.50
2022-12-31T09:55:57.679Z,11.87
2022-12-31T09:58:42.199Z,11.07
2022-12-31T10:01:21.800Z,10.83
2022-12-31T10:04:23.305Z,12.20
2022-12-31T10:07:00.998Z,7.20
2022-12-31T10:09:40.302Z,5.40
2022-12-31T10:12:25.081Z,5.10
2022-12-31T10:15:06.368Z,3.60
2022-12-31T10:17:50.249Z,3.27
2022-12-31T10:20:31.994Z,1.70
2022-12-31T10:23:16.132Z,1.77
2022-12-31T10:25:57.685Z,1.43
2022-12-31T10:28:31.960Z,1.43
2022-12-31T10:31:09.646Z,1.20
2022-12-31T10:33:44.317Z,1.77
2022-12-31T10:36:20.849Z,1.97
2022-12-31T10:38:57.025Z,1.57
2022-12-31T10:41:49.536Z,1.80
2022-12-31T10:44:47.803Z,1.80
2022-12-31T10:47:44.561Z,12.63
2022-12-31T10:50:55.197Z,6.93
2022-12-31T10:53:41.877Z,2.87
2022-12-31T10:56:35.477Z,4.30
2022-12-31T10:59:37.153Z,1.60
2022-12-31T11:02:19.177Z,2.20
2022-12-31T11:05:03.445Z,1.70
2022-12-31T11:07:44.448Z,1.80
2022-12-31T11:10:30.627Z,3.40
2022-12-31T11:13:37.685Z,12.17
2022-12-31T11:16:19.701Z,7.30
2022-12-31T11:18:53.960Z,1.60
2022-12-31T11:21:34.200Z,2.80
2022-12-31T11:24:07.274Z,10.90
2022-12-31T11:26:47.013Z,5.13
2022-12-31T11:29:29.573Z,1.60
2022-12-31T11:32:07.442Z,3.53
2022-12-31T11:34:57.875Z,4.47
2022-12-31T11:37:34.339Z,4.90
2022-12-31T11:40:14.666Z,2.60
2022-12-31T11:42:47.675Z,1.70
2022-12-31T11:45:25.118Z,1.50
2022-12-31T11:50:55.431Z,1.97
2022-12-31T11:53:58.596Z,3.37
2022-12-31T11:56:29.445Z,2.50
2022-12-31T11:58:57.751Z,2.07
2022-12-31T12:01:28.417Z,2.63
2022-12-31T12:03:57.868Z,3.00
2022-12-31T12:06:29.934Z,3.40
2022-12-31T12:09:01.237Z,2.47
2022-12-31T12:11:32.177Z,3.17
2022-12-31T12:14:00.163Z,5.97
2022-12-31T12:16:28.865Z,2.67
2022-12-31T12:19:06.482Z,2.27
2022-12-31T12:21:35.107Z,2.20
2022-12-31T12:24:05.142Z,2.17
2022-12-31T12:26:36.790Z,1.60
2022-12-31T12:29:12.706Z,1.77
2022-12-31T12:31:40.751Z,2.03
2022-12-31T12:34:23.912Z,1.73
2022-12-31T12:36:51.812Z,1.50
2022-12-31T12:39:22.434Z,1.77
2022-12-31T12:42:02.069Z,2.20
2022-12-31T12:44:30.139Z,3.20
2022-12-31T12:46:58.402Z,2.00
2022-12-31T12:49:29.273Z,2.13
2022-12-31T12:52:15.298Z,1.60
2022-12-31T12:54:58.274Z,1.70
2022-12-31T12:57:29.211Z,1.60
2022-12-31T13:00:07.696Z,1.30
2022-12-31T13:03:14.036Z,1.70
2022-12-31T13:05:49.913Z,1.80
2022-12-31T13:08:27.705Z,11.20
2022-12-31T13:11:26.454Z,3.33
2022-12-31T13:13:59.598Z,1.80
2022-12-31T13:16:36.073Z,2.47
2022-12-31T13:19:10.280Z,2.10
2022-12-31T13:21:45.359Z,1.80
2022-12-31T13:24:24.255Z,1.93
2022-12-31T13:26:56.422Z,2.10
2022-12-31T13:29:26.489Z,2.63
2022-12-31T13:31:56.270Z,4.77
2022-12-31T13:34:27.182Z,5.53
2022-12-31T13:36:59.292Z,5.57
2022-12-31T13:39:28.962Z,4.57
2022-12-31T13:42:00.179Z,2.63
2022-12-31T13:44:30.714Z,3.00
2022-12-31T13:47:03.798Z,1.77
2022-12-31T13:49:34.016Z,2.57
2022-12-31T13:52:06.901Z,2.37
2022-12-31T13:54:39.546Z,3.27
2022-12-31T13:57:13.920Z,2.80
2022-12-31T13:59:44.759Z,2.80
2022-12-31T14:02:27.030Z,3.00
2022-12-31T14:05:00.192Z,3.40
2022-12-31T14:07:37.756Z,3.37
2022-12-31T14:10:13.723Z,3.50
2022-12-31T14:12:47.940Z,4.27
2022-12-31T14:15:19.995Z,3.50
2022-12-31T14:17:51.367Z,3.60
2022-12-31T14:20:25.536Z,3.60
2022-12-31T14:23:00.126Z,3.30
2022-12-31T14:25:30.505Z,4.80
2022-12-31T14:27:59.227Z,5.70
2022-12-31T14:30:30.799Z,5.20
2022-12-31T14:33:06.058Z,4.30
2022-12-31T14:35:41.520Z,7.53
2022-12-31T14:38:20.176Z,16.47
2022-12-31T14:40:57.228Z,9.67
2022-12-31T14:43:33.022Z,10.57
2022-12-31T14:46:07.793Z,5.60
2022-12-31T14:48:44.169Z,4.47
2022-12-31T14:51:12.633Z,7.40
2022-12-31T14:53:52.747Z,39.90
2022-12-31T14:56:32.799Z,12.83
2022-12-31T14:59:01.754Z,13.50
2022-12-31T15:01:30.157Z,8.97
2022-12-31T15:03:59.069Z,6.73
2022-12-31T15:06:46.378Z,7.73
2022-12-31T15:09:21.865Z,6.93
2022-12-31T15:12:05.638Z,6.60
2022-12-31T15:14:55.143Z,7.87
2022-12-31T15:17:29.978Z,9.60
2022-12-31T15:20:17.775Z,13.50
2022-12-31T15:22:46.855Z,7.27
2022-12-31T15:25:35.384Z,7.13
2022-12-31T15:28:09.975Z,6.93
2022-12-31T15:30:41.044Z,8.27
2022-12-31T15:33:15.753Z,10.07
2022-12-31T15:35:49.637Z,10.20
2022-12-31T15:38:35.756Z,7.57
2022-12-31T15:41:17.568Z,18.40
2022-12-31T15:43:48.547Z,14.10
2022-12-31T15:46:19.692Z,16.23
2022-12-31T15:48:52.646Z,14.73
2022-12-31T15:51:25.254Z,9.20
2022-12-31T15:53:55.035Z,10.37
2022-12-31T15:56:31.683Z,12.20
2022-12-31T15:59:00.880Z,12.60
2022-12-31T16:01:31.035Z,8.87
2022-12-31T16:04:01.926Z,9.40
2022-12-31T16:06:31.883Z,8.10
2022-12-31T16:08:59.855Z,8.20
2022-12-31T16:11:30.521Z,7.83
2022-12-31T16:13:59.215Z,8.40
2022-12-31T16:16:30.011Z,8.20
2022-12-31T16:18:58.684Z,8.43
2022-12-31T16:21:34.424Z,9.33
2022-12-31T16:24:04.629Z,8.50
2022-12-31T16:26:38.294Z,7.87
2022-12-31T16:29:06.392Z,8.27
2022-12-31T16:31:34.395Z,8.33
2022-12-31T16:34:06.877Z,16.90
2022-12-31T16:36:35.459Z,9.43
2022-12-31T16:39:33.877Z,11.20
2022-12-31T16:42:19.915Z,12.30
2022-12-31T16:44:48.263Z,11.30
2022-12-31T16:47:19.978Z,11.13
2022-12-31T16:49:49.542Z,15.83
2022-12-31T16:52:28.796Z,11.73
2022-12-31T16:54:57.312Z,10.37
2022-12-31T16:57:28.506Z,11.60
2022-12-31T16:59:59.159Z,10.70
2022-12-31T17:02:28.671Z,11.93
2022-12-31T17:04:56.911Z,17.80
2022-12-31T17:07:37.723Z,19.77
2022-12-31T17:10:16.324Z,20.60
2022-12-31T17:13:25.398Z,19.43
2022-12-31T17:15:40.788Z,14.33
2022-12-31T17:18:09.279Z,13.70
2022-12-31T17:20:38.039Z,13.47
2022-12-31T17:23:08.816Z,12.80
2022-12-31T17:25:38.156Z,8.47
2022-12-31T17:28:09.201Z,8.43
2022-12-31T17:30:40.930Z,10.60
2022-12-31T17:33:29.012Z,9.90
2022-12-31T17:35:59.281Z,10.80
2022-12-31T17:38:31.781Z,10.80
2022-12-31T17:41:09.899Z,10.77
2022-12-31T17:43:39.943Z,9.90
2022-12-31T17:46:10.790Z,8.27
2022-12-31T17:48:38.753Z,31.00
2022-12-31T17:51:07.149Z,20.20
2022-12-31T17:53:35.146Z,28.10
2022-12-31T17:56:04.193Z,24.40
2022-12-31T17:58:34.697Z,23.00
2022-12-31T18:01:07.240Z,24.47
2022-12-31T18:03:35.239Z,27.57
2022-12-31T18:06:05.353Z,24.70
2022-12-31T18:08:33.309Z,39.30
2022-12-31T18:11:01.253Z,26.33
2022-12-31T18:13:29.183Z,28.43
2022-12-31T18:15:57.121Z,19.53
2022-12-31T18:18:28.560Z,18.50
2022-12-31T18:20:58.843Z,20.70
2022-12-31T18:23:29.980Z,16.27
2022-12-31T18:25:58.155Z,10.50
2022-12-31T18:28:26.063Z,11.50
2022-12-31T18:30:54.130Z,11.73
2022-12-31T18:33:25.084Z,12.20
2022-12-31T18:36:10.716Z,14.20
2022-12-31T18:38:39.451Z,14.10
2022-12-31T18:41:07.675Z,13.37
2022-12-31T18:43:35.557Z,15.10
2022-12-31T18:46:03.542Z,15.40
2022-12-31T18:48:31.495Z,17.50
2022-12-31T18:51:00.796Z,11.73
2022-12-31T18:53:28.678Z,10.97
2022-12-31T18:55:58.124Z,11.13
2022-12-31T18:58:26.071Z,11.10
2022-12-31T19:00:54.015Z,15.40
2022-12-31T19:03:24.647Z,15.77
2022-12-31T19:05:52.988Z,15.00
2022-12-31T19:08:23.571Z,15.00
2022-12-31T19:10:53.495Z,27.87
2022-12-31T19:13:23.320Z,16.57
2022-12-31T19:15:55.619Z,20.10
2022-12-31T19:18:23.601Z,28.97
2022-12-31T19:20:52.429Z,23.17
2022-12-31T19:23:22.672Z,18.90
2022-12-31T19:25:50.681Z,17.30
2022-12-31T19:28:20.528Z,19.37
2022-12-31T19:30:48.533Z,27.67
2022-12-31T19:33:16.980Z,26.27
2022-12-31T19:35:45.293Z,31.80
2022-12-31T19:38:18.711Z,29.57
2022-12-31T19:40:48.419Z,29.40
2022-12-31T19:43:18.084Z,17.23
2022-12-31T19:45:46.514Z,15.63
2022-12-31T19:48:16.960Z,13.57
2022-12-31T19:50:46.214Z,17.03
2022-12-31T19:53:16.500Z,17.03
2022-12-31T19:55:44.506Z,15.70
2022-12-31T19:58:18.172Z,15.53
2022-12-31T20:00:53.251Z,17.00
2022-12-31T20:03:23.818Z,31.83
2022-12-31T20:05:51.930Z,32.70
2022-12-31T20:08:22.739Z,24.33
2022-12-31T20:10:50.936Z,29.27
2022-12-31T20:13:20.226Z,21.43
2022-12-31T20:15:48.565Z,20.17
2022-12-31T20:18:21.023Z,17.97
2022-12-31T20:20:55.297Z,16.80
2022-12-31T20:23:23.835Z,17.10
2022-12-31T20:25:58.241Z,18.93
2022-12-31T20:28:27.946Z,16.43
2022-12-31T20:30:55.912Z,14.93
2022-12-31T20:33:24.133Z,16.00
2022-12-31T20:35:52.110Z,14.30
2022-12-31T20:38:20.123Z,13.70
2022-12-31T20:40:48.070Z,15.03
2022-12-31T20:43:16.027Z,16.13
2022-12-31T20:45:45.369Z,16.07
2022-12-31T20:48:13.280Z,14.50
2022-12-31T20:50:41.187Z,15.60
2022-12-31T20:53:09.089Z,19.50
2022-12-31T20:55:38.711Z,17.87
2022-12-31T20:58:06.616Z,17.50
2022-12-31T21:00:34.533Z,18.60
2022-12-31T21:03:10.767Z,17.90
2022-12-31T21:05:50.263Z,20.20
2022-12-31T21:08:18.612Z,22.10
2022-12-31T21:10:48.521Z,19.60
2022-12-31T21:13:18.469Z,17.40
2022-12-31T21:15:48.634Z,15.40
2022-12-31T21:18:18.420Z,10.53
2022-12-31T21:20:47.852Z,13.13
2022-12-31T21:23:15.880Z,15.87
2022-12-31T21:25:44.816Z,19.00
2022-12-31T21:28:13.306Z,19.90
2022-12-31T21:30:42.161Z,14.27
2022-12-31T21:33:10.077Z,10.47
2022-12-31T21:35:45.345Z,12.63
2022-12-31T21:38:16.493Z,16.07
2022-12-31T21:40:45.059Z,20.63
2022-12-31T21:43:13.283Z,17.73
2022-12-31T21:45:41.288Z,18.90
2022-12-31T21:48:23.376Z,17.53
2022-12-31T21:50:53.867Z,19.33
2022-12-31T21:53:27.876Z,19.47
2022-12-31T21:56:14.732Z,17.83
2022-12-31T21:58:44.451Z,14.27
2022-12-31T22:01:35.344Z,13.57
2022-12-31T22:04:03.593Z,11.00
2022-12-31T22:06:33.827Z,9.80
2022-12-31T22:09:01.733Z,10.73
2022-12-31T22:11:30.007Z,10.40
2022-12-31T22:13:57.938Z,13.20
2022-12-31T22:16:25.863Z,9.40
2022-12-31T22:18:56.114Z,9.87
2022-12-31T22:21:25.231Z,8.10
2022-12-31T22:23:55.748Z,6.73
2022-12-31T22:26:26.722Z,6.67
2022-12-31T22:28:59.069Z,11.00
2022-12-31T22:31:29.914Z,8.97
2022-12-31T22:33:58.494Z,11.20
2022-12-31T22:36:26.519Z,9.73
2022-12-31T22:38:58.493Z,9.80
2022-12-31T22:41:27.402Z,11.80
2022-12-31T22:44:03.055Z,12.50
2022-12-31T22:46:32.725Z,12.80
2022-12-31T22:49:01.570Z,11.90
2022-12-31T22:51:56.707Z,20.80
2022-12-31T22:54:19.751Z,13.53
2022-12-31T22:56:47.639Z,9.90
2022-12-31T22:59:15.553Z,6.13
2022-12-31T23:01:43.509Z,5.73
2022-12-31T23:04:12.132Z,5.80
2022-12-31T23:06:44.310Z,15.47
2022-12-31T23:09:30.554Z,19.03
2022-12-31T23:12:00.007Z,31.97
2022-12-31T23:14:45.270Z,29.70
2022-12-31T23:17:34.908Z,55.47
2022-12-31T23:20:20.493Z,62.60
2022-12-31T23:23:06.275Z,62.67
2022-12-31T23:25:34.866Z,70.90
2022-12-31T23:28:04.626Z,72.33
2022-12-31T23:30:32.557Z,58.50
2022-12-31T23:33:00.840Z,70.63
2022-12-31T23:35:28.751Z,66.33
2022-12-31T23:37:59.175Z,60.93
2022-12-31T23:40:34.279Z,44.63
2022-12-31T23:43:05.247Z,55.50
2022-12-31T23:45:34.042Z,48.03
2022-12-31T23:48:02.240Z,48.80
2022-12-31T23:50:30.350Z,49.80
2022-12-31T23:52:58.295Z,60.30
2022-12-31T23:55:26.213Z,56.47
2022-12-31T23:57:54.085Z,54.47
